Time;durP1;ratioP1;P1;durP2;ratioP2;P2;SDS_P1;SDS_P2;PMS_P1;PMS_P2;Temp;Humidity;BMP_temperature;BMP_pressure;BME280_temperature;BME280_humidity;BME280_pressure;Samples;Min_cycle;Max_cycle;Signal;HPM_P1;HPM_P2
2022/04/27 00:00:42;;;;;;;1.35;1.25;;;18.70;99.90;;;;;;5067458;28;20032;-75
2022/04/27 00:03:15;;;;;;;2.03;1.60;;;18.80;99.90;;;;;;5091136;28;20114;-73
2022/04/27 00:05:43;;;;;;;1.63;1.25;;;18.80;99.90;;;;;;5082363;28;20032;-74
2022/04/27 00:08:12;;;;;;;3.60;1.48;;;18.80;99.90;;;;;;5081590;28;20028;-74
2022/04/27 00:10:44;;;;;;;2.55;1.48;;;18.90;99.90;;;;;;5083405;28;20512;-74
2022/04/27 00:13:17;;;;;;;3.92;1.38;;;18.90;99.90;;;;;;5100186;27;20027;-75
2022/04/27 00:15:47;;;;;;;4.20;1.30;;;18.90;99.90;;;;;;5097440;28;20039;-74
2022/04/27 00:18:15;;;;;;;2.03;1.30;;;18.90;99.90;;;;;;5088353;28;20470;-75
2022/04/27 00:20:44;;;;;;;3.05;1.85;;;19.00;99.90;;;;;;5100743;27;20027;-74
2022/04/27 00:23:15;;;;;;;1.67;1.23;;;18.90;99.90;;;;;;5079518;28;20062;-74
2022/04/27 00:25:50;;;;;;;4.32;1.25;;;19.00;99.90;;;;;;5090016;27;20035;-75
2022/04/27 00:28:17;;;;;;;2.25;1.35;;;19.00;99.90;;;;;;5086461;28;20030;-75
2022/04/27 00:30:50;;;;;;;1.98;1.45;;;19.00;99.90;;;;;;5081415;28;20527;-73
2022/04/27 00:33:20;;;;;;;2.67;0.90;;;19.00;99.90;;;;;;5095387;28;20518;-74
2022/04/27 00:35:50;;;;;;;4.03;1.05;;;19.00;99.90;;;;;;5108409;28;20439;-74
2022/04/27 00:38:17;;;;;;;2.17;1.02;;;19.00;99.90;;;;;;5109070;27;20034;-75
2022/04/27 00:40:48;;;;;;;1.90;0.98;;;19.10;99.90;;;;;;5081013;28;20046;-75
2022/04/27 00:43:17;;;;;;;4.28;2.35;;;19.10;99.90;;;;;;5100580;28;20108;-75
2022/04/27 00:45:54;;;;;;;2.90;0.98;;;19.10;99.90;;;;;;5081567;28;20124;-74
2022/04/27 00:48:25;;;;;;;2.80;1.08;;;19.10;99.90;;;;;;5083191;28;20084;-74
2022/04/27 00:50:56;;;;;;;0.65;0.40;;;19.10;99.90;;;;;;5095172;28;20485;-74
2022/04/27 00:53:24;;;;;;;2.63;0.70;;;19.10;99.90;;;;;;5099569;28;20107;-74
2022/04/27 00:55:52;;;;;;;1.48;0.60;;;19.20;99.90;;;;;;5100483;28;20039;-76
2022/04/27 00:58:22;;;;;;;3.55;0.90;;;19.20;99.90;;;;;;5099800;28;20422;-74
2022/04/27 01:00:50;;;;;;;1.33;0.68;;;19.20;99.90;;;;;;5096772;28;20434;-76
2022/04/27 01:03:20;;;;;;;0.95;0.90;;;19.30;99.90;;;;;;5099872;28;20054;-78
2022/04/27 01:05:50;;;;;;;2.72;1.05;;;19.30;99.90;;;;;;5100219;28;20028;-74
2022/04/27 01:08:22;;;;;;;2.08;1.00;;;19.40;99.90;;;;;;5100987;28;20031;-75
2022/04/27 01:10:50;;;;;;;1.50;0.90;;;19.40;99.90;;;;;;5096875;28;20054;-75
2022/04/27 01:13:18;;;;;;;2.67;1.08;;;19.40;99.90;;;;;;5099539;28;20023;-74
2022/04/27 01:15:46;;;;;;;2.17;0.80;;;19.50;99.90;;;;;;5098356;28;20198;-73
2022/04/27 01:18:15;;;;;;;1.98;1.17;;;19.50;99.90;;;;;;5102215;28;20099;-75
2022/04/27 01:20:44;;;;;;;4.20;1.48;;;19.50;99.90;;;;;;5084884;28;20039;-74
2022/04/27 01:23:16;;;;;;;1.73;1.00;;;19.50;99.90;;;;;;5082045;28;20023;-77
2022/04/27 01:25:49;;;;;;;1.40;1.30;;;19.50;99.90;;;;;;5108082;27;20020;-75
2022/04/27 01:28:23;;;;;;;3.63;1.30;;;19.50;99.90;;;;;;5101299;28;20081;-74
2022/04/27 01:31:02;;;;;;;6.93;1.20;;;19.40;99.90;;;;;;5099261;28;20050;-75
2022/04/27 01:33:34;;;;;;;4.43;1.10;;;19.40;99.90;;;;;;5081204;28;20111;-75
2022/04/27 01:36:04;;;;;;;3.03;1.50;;;19.50;99.90;;;;;;5071958;28;20032;-74
2022/04/27 01:38:36;;;;;;;2.25;1.00;;;19.50;99.90;;;;;;5091836;28;20040;-76
2022/04/27 01:41:06;;;;;;;1.48;1.10;;;19.50;99.90;;;;;;5086870;28;20027;-77
2022/04/27 01:43:36;;;;;;;1.90;1.17;;;19.60;99.90;;;;;;5080334;28;20473;-74
2022/04/27 01:46:07;;;;;;;2.47;1.60;;;19.60;99.90;;;;;;5081089;28;20036;-75
2022/04/27 01:48:35;;;;;;;2.67;1.55;;;19.70;99.90;;;;;;5081501;28;20051;-75
2022/04/27 01:51:03;;;;;;;1.83;0.90;;;19.70;99.90;;;;;;5103938;27;20452;-75
2022/04/27 01:56:16;;;;;;;2.70;1.10;;;19.70;99.90;;;;;;5097306;28;20414;-76
2022/04/27 01:58:45;;;;;;;5.45;1.05;;;19.70;99.90;;;;;;5107421;27;20271;-76
2022/04/27 02:01:13;;;;;;;2.90;1.13;;;19.70;99.90;;;;;;5095537;28;20142;-76
2022/04/27 02:03:42;;;;;;;2.20;1.45;;;19.70;99.90;;;;;;5098642;28;20034;-75
2022/04/27 02:06:10;;;;;;;1.70;1.23;;;19.80;99.90;;;;;;5079196;28;20038;-76
2022/04/27 02:08:38;;;;;;;3.35;1.27;;;19.80;99.90;;;;;;5081125;28;20101;-76
2022/04/27 02:11:06;;;;;;;2.35;1.80;;;19.70;99.90;;;;;;5096675;28;20054;-76
2022/04/27 02:13:38;;;;;;;2.30;1.83;;;19.70;99.90;;;;;;5099097;28;20131;-76
2022/04/27 02:16:06;;;;;;;4.00;2.15;;;19.70;99.90;;;;;;5097428;28;20070;-75
2022/04/27 02:18:36;;;;;;;1.90;1.35;;;19.60;99.90;;;;;;5097821;28;20027;-75
2022/04/27 02:21:04;;;;;;;2.10;1.45;;;19.60;99.90;;;;;;5094654;28;20088;-77
2022/04/27 02:23:31;;;;;;;2.28;1.23;;;19.60;99.90;;;;;;5097799;28;20196;-75
2022/04/27 02:26:01;;;;;;;2.67;0.95;;;19.60;99.90;;;;;;5097258;28;20027;-74
2022/04/27 02:28:28;;;;;;;3.85;2.03;;;19.70;99.90;;;;;;5094624;28;20185;-76
2022/04/27 02:30:56;;;;;;;3.45;1.33;;;19.70;99.90;;;;;;5096263;28;20390;-76
2022/04/27 02:33:24;;;;;;;2.83;1.90;;;19.80;99.90;;;;;;5098236;28;20031;-75
2022/04/27 02:35:56;;;;;;;2.35;1.95;;;19.70;99.90;;;;;;5097542;28;20393;-75
2022/04/27 02:38:27;;;;;;;3.92;1.80;;;19.80;99.90;;;;;;5097980;28;20035;-76
2022/04/27 02:40:55;;;;;;;3.75;1.88;;;19.90;99.90;;;;;;5079704;28;20040;-75
2022/04/27 02:43:23;;;;;;;2.65;1.58;;;19.80;99.90;;;;;;5059377;28;20055;-75
2022/04/27 02:45:52;;;;;;;2.00;1.52;;;19.80;99.90;;;;;;5098222;28;20024;-75
2022/04/27 02:48:19;;;;;;;1.85;1.00;;;19.80;99.90;;;;;;5102332;28;20047;-75
2022/04/27 02:53:35;;;;;;;3.45;1.02;;;19.70;99.90;;;;;;5099171;28;20093;-75
2022/04/27 02:56:03;;;;;;;1.27;1.02;;;19.80;99.90;;;;;;5101008;28;20159;-74
2022/04/27 02:58:31;;;;;;;2.47;1.85;;;19.80;99.90;;;;;;5103202;27;20016;-76
2022/04/27 03:00:59;;;;;;;1.90;1.23;;;19.80;99.90;;;;;;5101724;28;20110;-75
2022/04/27 03:03:27;;;;;;;1.98;1.55;;;19.90;99.90;;;;;;5085946;28;20019;-74
2022/04/27 03:05:54;;;;;;;6.70;1.73;;;19.90;99.90;;;;;;5101751;28;20419;-74
2022/04/27 03:08:22;;;;;;;5.05;2.22;;;20.00;99.90;;;;;;5105280;27;20020;-75
2022/04/27 03:10:49;;;;;;;3.45;2.08;;;20.10;99.90;;;;;;5130776;27;20024;-74
2022/04/27 03:13:16;;;;;;;2.03;1.08;;;20.10;99.90;;;;;;5106383;27;20389;-74
2022/04/27 03:15:44;;;;;;;6.10;1.80;;;20.00;99.90;;;;;;5101293;28;20038;-74
2022/04/27 03:18:17;;;;;;;3.72;1.83;;;20.10;99.90;;;;;;5102237;28;20504;-74
2022/04/27 03:20:44;;;;;;;1.70;1.60;;;20.30;99.90;;;;;;5100678;28;20026;-74
2022/04/27 03:23:12;;;;;;;5.75;2.35;;;20.40;99.90;;;;;;5100486;27;22406;-73
2022/04/27 03:25:39;;;;;;;3.75;2.35;;;20.50;99.90;;;;;;5102828;27;20096;-73
2022/04/27 03:28:07;;;;;;;7.40;1.80;;;20.50;99.90;;;;;;5100744;28;20028;-74
2022/04/27 03:30:34;;;;;;;4.15;2.30;;;20.50;99.90;;;;;;5101792;27;20031;-74
2022/04/27 03:33:01;;;;;;;2.95;2.50;;;20.50;99.90;;;;;;5101680;28;20020;-75
2022/04/27 03:35:29;;;;;;;3.80;3.10;;;20.40;99.90;;;;;;5103627;28;20102;-76
2022/04/27 03:37:58;;;;;;;3.75;2.85;;;20.30;99.90;;;;;;5100104;28;20462;-76
2022/04/27 03:40:28;;;;;;;6.57;3.30;;;20.20;99.90;;;;;;5128580;27;20084;-75
2022/04/27 03:42:59;;;;;;;6.82;4.22;;;20.10;99.90;;;;;;5113165;27;20398;-75
2022/04/27 03:45:26;;;;;;;5.18;3.75;;;20.10;99.90;;;;;;5107702;27;20678;-73
2022/04/27 03:47:54;;;;;;;5.18;3.85;;;20.00;99.90;;;;;;5099777;27;20070;-73
2022/04/27 03:50:21;;;;;;;3.20;2.65;;;20.00;99.90;;;;;;5100159;27;20028;-73
2022/04/27 03:52:48;;;;;;;7.45;5.30;;;20.00;99.90;;;;;;5102206;28;21621;-73
2022/04/27 03:55:16;;;;;;;6.50;5.07;;;20.00;99.90;;;;;;5101881;28;20039;-74
2022/04/27 03:57:43;;;;;;;6.43;4.82;;;20.10;99.90;;;;;;5101498;28;20082;-74
2022/04/27 04:00:12;;;;;;;6.15;4.95;;;20.00;99.90;;;;;;5101148;28;20028;-74
2022/04/27 04:02:39;;;;;;;4.90;4.30;;;20.10;99.90;;;;;;5100944;28;20028;-74
2022/04/27 04:05:07;;;;;;;4.25;3.63;;;20.00;99.90;;;;;;5106543;27;20019;-72
2022/04/27 04:07:35;;;;;;;6.15;4.72;;;20.00;99.90;;;;;;5125814;27;20038;-74
2022/04/27 04:10:02;;;;;;;4.85;4.10;;;20.00;99.90;;;;;;5116615;27;20028;-74
2022/04/27 04:12:30;;;;;;;8.65;4.78;;;19.90;99.90;;;;;;5110925;28;20039;-74
2022/04/27 04:14:57;;;;;;;6.38;5.40;;;19.80;99.90;;;;;;5101392;28;20020;-73
2022/04/27 04:17:25;;;;;;;6.35;4.95;;;19.70;99.90;;;;;;5122358;27;20503;-75
2022/04/27 04:19:52;;;;;;;7.80;4.28;;;19.60;99.90;;;;;;5105551;27;20020;-76
2022/04/27 04:22:20;;;;;;;7.18;5.13;;;19.60;99.90;;;;;;5100112;27;20028;-73
2022/04/27 04:30:18;;;;;;;3.97;3.60;;;19.50;99.90;;;;;;5102267;27;20390;-74
2022/04/27 04:32:46;;;;;;;7.32;4.60;;;19.40;99.90;;;;;;5100274;27;20034;-73
2022/04/27 04:35:15;;;;;;;4.88;3.97;;;19.40;99.90;;;;;;5100106;27;20070;-75
2022/04/27 04:37:42;;;;;;;9.15;4.60;;;19.40;99.90;;;;;;5099251;28;20030;-75
2022/04/27 04:40:10;;;;;;;4.70;3.30;;;19.30;99.90;;;;;;5100715;27;20035;-76
2022/04/27 04:42:37;;;;;;;6.80;3.08;;;19.40;99.90;;;;;;5100500;28;20391;-75
2022/04/27 04:45:05;;;;;;;6.50;4.00;;;19.30;99.90;;;;;;5102184;27;20023;-74
2022/04/27 04:47:32;;;;;;;5.65;3.05;;;19.30;99.90;;;;;;5099318;27;20051;-73
2022/04/27 04:49:59;;;;;;;5.60;4.03;;;19.30;99.90;;;;;;5100900;28;20035;-74
2022/04/27 04:52:28;;;;;;;6.10;3.42;;;19.40;99.90;;;;;;5103778;28;20110;-74
2022/04/27 04:54:55;;;;;;;5.68;3.22;;;19.40;99.90;;;;;;5105457;27;20024;-74
2022/04/27 04:57:22;;;;;;;3.55;2.70;;;19.40;99.90;;;;;;5100088;28;20032;-73
2022/04/27 04:59:51;;;;;;;7.13;4.07;;;19.40;99.90;;;;;;5100375;27;20504;-73
2022/04/27 05:02:19;;;;;;;5.63;3.25;;;19.40;99.90;;;;;;5101340;28;20396;-74
2022/04/27 05:04:46;;;;;;;3.72;3.22;;;19.40;99.90;;;;;;5097749;28;20340;-75
2022/04/27 05:07:13;;;;;;;4.32;3.53;;;19.40;99.90;;;;;;5097147;27;20046;-75
2022/04/27 05:09:41;;;;;;;2.72;2.30;;;19.40;99.90;;;;;;5098974;28;20381;-72
2022/04/27 05:12:08;;;;;;;5.88;3.60;;;19.40;99.90;;;;;;5099179;28;20115;-74
2022/04/27 05:14:36;;;;;;;4.13;3.50;;;19.40;99.90;;;;;;5099121;28;20030;-73
2022/04/27 05:17:04;;;;;;;4.47;2.80;;;19.40;99.90;;;;;;5100691;28;20123;-73
2022/04/27 05:19:31;;;;;;;7.10;4.38;;;19.40;99.90;;;;;;5103730;27;20024;-74
2022/04/27 05:21:58;;;;;;;6.00;4.85;;;19.40;99.90;;;;;;5098906;28;20032;-72
2022/04/27 05:24:26;;;;;;;4.93;3.60;;;19.50;99.90;;;;;;5099994;28;20023;-71
2022/04/27 05:26:53;;;;;;;7.65;4.07;;;19.50;99.90;;;;;;5098043;28;20035;-73
2022/04/27 05:32:07;;;;;;;5.85;3.92;;;19.50;99.90;;;;;;5104910;27;20179;-75
2022/04/27 05:34:35;;;;;;;5.32;4.65;;;19.60;99.90;;;;;;5104161;28;20389;-72
2022/04/27 05:37:03;;;;;;;7.97;4.68;;;19.60;99.90;;;;;;5088013;28;20070;-73
2022/04/27 05:39:33;;;;;;;6.22;4.32;;;19.60;99.90;;;;;;5099995;28;20089;-74
2022/04/27 05:42:00;;;;;;;6.63;4.10;;;19.50;99.90;;;;;;5103441;28;20023;-75
2022/04/27 05:44:28;;;;;;;6.75;3.83;;;19.50;99.90;;;;;;5099094;28;20031;-73
2022/04/27 05:46:56;;;;;;;7.45;4.65;;;19.40;99.90;;;;;;5100260;28;20702;-76
2022/04/27 05:49:23;;;;;;;4.55;3.15;;;19.40;99.90;;;;;;5100063;27;20034;-75
2022/04/27 05:51:51;;;;;;;4.47;4.07;;;19.40;99.90;;;;;;5107558;27;20038;-74
2022/04/27 05:54:19;;;;;;;3.28;2.88;;;19.50;99.90;;;;;;5101920;28;20057;-72
2022/04/27 05:56:46;;;;;;;8.45;3.50;;;19.50;99.90;;;;;;5098337;28;20035;-72
2022/04/27 05:59:14;;;;;;;6.53;5.15;;;19.50;99.90;;;;;;5097915;28;20043;-73
2022/04/27 06:01:41;;;;;;;5.55;3.92;;;19.50;99.90;;;;;;5101224;28;20027;-73
2022/04/27 06:04:09;;;;;;;6.60;4.90;;;19.40;99.90;;;;;;5098989;27;20107;-72
2022/04/27 06:06:36;;;;;;;5.05;4.35;;;19.40;99.90;;;;;;5099123;27;20127;-74
2022/04/27 06:09:04;;;;;;;8.63;5.43;;;19.40;99.90;;;;;;5099457;28;20032;-71
2022/04/27 06:11:32;;;;;;;6.50;4.25;;;19.30;99.90;;;;;;5099052;28;20429;-74
2022/04/27 06:13:59;;;;;;;6.18;4.50;;;19.30;99.90;;;;;;5106570;27;20039;-75
2022/04/27 06:16:27;;;;;;;7.43;4.32;;;19.30;99.90;;;;;;5098813;28;20038;-74
2022/04/27 06:18:54;;;;;;;6.82;4.63;;;19.40;99.90;;;;;;5106912;28;20106;-74
2022/04/27 06:21:22;;;;;;;6.80;4.15;;;19.40;99.90;;;;;;5104088;28;20034;-77
2022/04/27 06:23:49;;;;;;;5.95;4.72;;;19.40;99.90;;;;;;5094201;28;20073;-74
2022/04/27 06:26:18;;;;;;;6.20;4.32;;;19.30;99.90;;;;;;5095076;28;20055;-74
2022/04/27 06:28:45;;;;;;;4.38;3.20;;;19.40;99.90;;;;;;5097670;28;20020;-74
2022/04/27 06:31:13;;;;;;;5.82;3.38;;;19.40;99.90;;;;;;5094338;28;20501;-74
2022/04/27 06:33:40;;;;;;;4.43;2.72;;;19.40;99.90;;;;;;5098819;28;20030;-76
2022/04/27 06:36:07;;;;;;;4.72;2.28;;;19.60;99.90;;;;;;5096529;28;20119;-75
2022/04/27 06:38:39;;;;;;;3.40;2.20;;;19.60;99.90;;;;;;5100856;28;20059;-74
2022/04/27 06:41:06;;;;;;;5.47;2.75;;;19.60;99.90;;;;;;5099751;28;20047;-74
2022/04/27 06:43:34;;;;;;;4.57;3.05;;;19.60;99.90;;;;;;5100499;28;20111;-74
2022/04/27 06:46:02;;;;;;;4.65;2.92;;;19.60;99.90;;;;;;5100670;28;20028;-75
2022/04/27 06:48:30;;;;;;;5.00;3.65;;;19.60;99.90;;;;;;5098346;28;20059;-75
2022/04/27 06:50:57;;;;;;;6.55;2.88;;;19.60;99.90;;;;;;5098204;28;20034;-74
2022/04/27 06:53:24;;;;;;;5.00;2.50;;;19.60;99.90;;;;;;5102475;28;20026;-75
2022/04/27 06:55:52;;;;;;;3.97;3.40;;;19.60;99.90;;;;;;5101527;28;20051;-75
2022/04/27 06:58:19;;;;;;;7.22;3.08;;;19.50;99.90;;;;;;5106703;28;20023;-74
2022/04/27 07:00:48;;;;;;;5.18;3.00;;;19.50;99.90;;;;;;5103736;28;20444;-76
2022/04/27 07:03:18;;;;;;;7.07;3.38;;;19.50;99.90;;;;;;5103103;28;20067;-74
2022/04/27 07:05:46;;;;;;;7.97;3.08;;;19.50;99.90;;;;;;5105096;28;20127;-75
2022/04/27 07:08:14;;;;;;;3.33;2.72;;;19.60;99.90;;;;;;5101518;28;20077;-75
2022/04/27 07:10:41;;;;;;;3.67;2.33;;;19.60;99.90;;;;;;5097634;28;20503;-75
2022/04/27 07:13:08;;;;;;;6.88;2.83;;;19.60;99.90;;;;;;5099674;28;20043;-74
2022/04/27 07:15:36;;;;;;;6.82;3.33;;;19.60;99.90;;;;;;5099142;28;20350;-74
2022/04/27 07:18:03;;;;;;;3.50;2.65;;;19.50;99.90;;;;;;5102524;28;20076;-75
2022/04/27 07:20:30;;;;;;;7.45;2.35;;;19.50;99.90;;;;;;5097226;28;20113;-76
2022/04/27 07:22:57;;;;;;;3.83;2.50;;;19.50;99.90;;;;;;5099220;28;20038;-75
2022/04/27 07:25:25;;;;;;;3.58;2.60;;;19.40;99.90;;;;;;5103247;28;20032;-76
2022/04/27 07:27:52;;;;;;;5.95;3.05;;;19.40;99.90;;;;;;5100806;28;20016;-76
2022/04/27 07:30:21;;;;;;;6.07;2.85;;;19.30;99.90;;;;;;5107974;28;20023;-78
2022/04/27 07:32:49;;;;;;;4.30;3.58;;;19.20;99.90;;;;;;5111061;28;20119;-77
2022/04/27 07:35:18;;;;;;;7.07;4.82;;;19.10;99.90;;;;;;5112602;28;20039;-77
2022/04/27 07:37:46;;;;;;;4.85;3.95;;;19.10;99.90;;;;;;5109627;28;20039;-77
2022/04/27 07:40:14;;;;;;;7.88;4.10;;;19.10;99.90;;;;;;5113776;28;20104;-77
2022/04/27 07:42:42;;;;;;;4.13;3.65;;;19.00;99.90;;;;;;5109345;28;20031;-76
2022/04/27 07:45:09;;;;;;;5.38;3.17;;;19.00;99.90;;;;;;5114142;28;20015;-75
2022/04/27 07:47:54;;;;;;;6.32;3.95;;;18.90;99.90;;;;;;5110896;28;20131;-76
2022/04/27 07:50:22;;;;;;;6.15;3.88;;;18.90;99.90;;;;;;5110045;27;20024;-76
2022/04/27 07:52:49;;;;;;;7.18;3.90;;;18.90;99.90;;;;;;5115077;27;20433;-75
2022/04/27 07:55:17;;;;;;;6.05;4.00;;;18.80;99.90;;;;;;5117006;27;20576;-75
2022/04/27 07:57:45;;;;;;;8.85;4.50;;;18.80;99.90;;;;;;5111178;28;20043;-75
2022/04/27 08:00:13;;;;;;;7.60;3.85;;;18.80;99.90;;;;;;5111685;27;20492;-74
2022/04/27 08:02:43;;;;;;;11.88;5.90;;;18.70;99.90;;;;;;5108766;27;20154;-76
2022/04/27 08:05:11;;;;;;;8.02;5.38;;;18.70;99.90;;;;;;5121505;27;20030;-74
2022/04/27 08:07:43;;;;;;;7.18;4.07;;;18.60;99.90;;;;;;5113046;27;20036;-75
2022/04/27 08:10:13;;;;;;;8.35;5.55;;;18.60;99.90;;;;;;5137885;27;20042;-75
2022/04/27 08:12:43;;;;;;;10.00;5.40;;;18.60;99.90;;;;;;5115121;27;20035;-75
2022/04/27 08:15:11;;;;;;;8.27;5.50;;;18.60;99.90;;;;;;5106949;27;20030;-76
2022/04/27 08:17:51;;;;;;;8.70;5.65;;;18.60;99.90;;;;;;5108553;27;20043;-76
2022/04/27 08:23:10;;;;;;;7.30;6.10;;;18.50;99.90;;;;;;5130516;27;20045;-76
2022/04/27 08:25:37;;;;;;;11.50;7.40;;;18.50;99.90;;;;;;5113040;27;20034;-75
2022/04/27 08:28:06;;;;;;;7.32;5.22;;;18.40;99.90;;;;;;5108871;28;20122;-76
2022/04/27 08:30:38;;;;;;;11.98;7.07;;;18.40;99.90;;;;;;5107987;27;20042;-77
2022/04/27 08:33:07;;;;;;;10.88;7.00;;;18.40;99.90;;;;;;5097296;28;20147;-78
2022/04/27 08:35:36;;;;;;;16.77;6.38;;;18.40;99.90;;;;;;5103103;28;20032;-77
2022/04/27 08:38:05;;;;;;;19.27;9.73;;;18.30;99.90;;;;;;5103626;28;20114;-77
2022/04/27 08:40:37;;;;;;;13.00;9.50;;;18.30;99.90;;;;;;5100201;28;20639;-76
2022/04/27 08:43:05;;;;;;;20.13;10.73;;;18.30;99.90;;;;;;5099479;27;20032;-77
2022/04/27 08:45:33;;;;;;;20.35;11.70;;;18.40;99.90;;;;;;5107166;27;20027;-76
2022/04/27 08:48:00;;;;;;;19.77;10.57;;;18.40;99.90;;;;;;5110793;27;20136;-76
2022/04/27 08:50:28;;;;;;;16.85;11.80;;;18.40;99.90;;;;;;5111613;28;20039;-75
2022/04/27 08:52:56;;;;;;;20.60;12.57;;;18.40;99.90;;;;;;5109511;28;20027;-78
2022/04/27 08:55:27;;;;;;;20.98;11.70;;;18.30;99.90;;;;;;5111276;28;20028;-76
2022/04/27 08:58:06;;;;;;;23.60;11.90;;;18.30;99.90;;;;;;5107181;28;20036;-76
2022/04/27 09:00:35;;;;;;;21.75;11.82;;;18.30;99.90;;;;;;5083965;28;20486;-77
2022/04/27 09:03:27;;;;;;;17.88;10.25;;;18.30;99.90;;;;;;5101956;28;20028;-77
2022/04/27 09:06:06;;;;;;;14.13;9.38;;;18.30;99.90;;;;;;5114825;27;20051;-79
2022/04/27 09:08:48;;;;;;;14.50;9.18;;;18.30;99.90;;;;;;5108845;28;20042;-80
2022/04/27 09:11:15;;;;;;;15.60;10.63;;;18.20;99.90;;;;;;5107234;27;20024;-77
2022/04/27 09:14:03;;;;;;;17.52;9.65;;;18.30;99.90;;;;;;5111290;28;20058;-75
2022/04/27 09:22:27;;;;;;;20.65;12.43;;;18.30;99.90;;;;;;5104326;28;20035;-77
2022/04/27 09:25:00;;;;;;;21.02;13.93;;;18.30;99.90;;;;;;5111229;28;20027;-76
2022/04/27 09:27:28;;;;;;;16.77;11.65;;;18.30;99.90;;;;;;5108457;28;20072;-76
2022/04/27 09:29:57;;;;;;;20.92;13.55;;;18.30;99.90;;;;;;5109445;28;20022;-77
2022/04/27 09:32:25;;;;;;;22.52;14.43;;;18.20;99.90;;;;;;5108031;28;20172;-78
2022/04/27 09:34:53;;;;;;;21.70;14.32;;;18.30;99.90;;;;;;5109496;28;20035;-77
2022/04/27 09:37:24;;;;;;;22.13;14.55;;;18.30;99.90;;;;;;5120486;27;20046;-77
2022/04/27 09:40:02;;;;;;;20.80;12.38;;;18.30;99.90;;;;;;5109778;27;20098;-78
2022/04/27 09:42:35;;;;;;;20.52;12.55;;;18.30;99.90;;;;;;5106098;28;20028;-79
2022/04/27 09:45:25;;;;;;;18.35;12.23;;;18.30;99.90;;;;;;5111517;28;20023;-77
2022/04/27 09:48:03;;;;;;;16.20;11.90;;;18.30;99.90;;;;;;5117144;27;20566;-76
2022/04/27 09:50:59;;;;;;;22.98;12.57;;;18.30;99.90;;;;;;5108278;28;20031;-76
2022/04/27 09:53:26;;;;;;;15.97;10.80;;;18.30;99.90;;;;;;5107916;28;20028;-78
2022/04/27 09:55:56;;;;;;;16.17;11.98;;;18.30;99.90;;;;;;5108553;28;20041;-77
2022/04/27 09:58:26;;;;;;;17.75;11.25;;;18.30;99.90;;;;;;5093163;28;20024;-78
2022/04/27 10:00:57;;;;;;;16.50;10.23;;;18.30;99.90;;;;;;5103289;28;20443;-78
2022/04/27 10:03:26;;;;;;;16.80;10.70;;;18.30;99.90;;;;;;5097835;28;20486;-77
2022/04/27 10:05:53;;;;;;;16.90;10.55;;;18.30;99.90;;;;;;5098764;28;20039;-76
2022/04/27 10:08:22;;;;;;;14.85;11.05;;;18.30;99.90;;;;;;5107887;28;20020;-78
2022/04/27 10:10:49;;;;;;;17.48;11.32;;;18.40;99.90;;;;;;5105742;27;20023;-77
2022/04/27 10:13:17;;;;;;;18.25;11.13;;;18.30;99.90;;;;;;5110306;28;20035;-77
2022/04/27 10:15:46;;;;;;;16.42;10.30;;;18.40;99.90;;;;;;5092130;28;20440;-78
2022/04/27 10:18:18;;;;;;;16.83;10.90;;;18.40;99.90;;;;;;5108543;28;20031;-77
2022/04/27 10:20:51;;;;;;;14.75;8.63;;;18.40;99.90;;;;;;5108589;28;20024;-78
2022/04/27 10:23:32;;;;;;;13.02;8.90;;;18.40;99.90;;;;;;5126305;28;20023;-77
2022/04/27 10:26:20;;;;;;;14.75;8.45;;;18.40;99.90;;;;;;5099628;28;20028;-77
2022/04/27 10:28:56;;;;;;;13.57;8.95;;;18.40;99.90;;;;;;5098186;28;20024;-77
2022/04/27 10:31:42;;;;;;;14.48;8.57;;;18.40;99.90;;;;;;5102459;28;20031;-77
2022/04/27 10:34:19;;;;;;;14.20;9.30;;;18.40;99.90;;;;;;5102142;28;20036;-77
2022/04/27 10:36:48;;;;;;;12.63;9.48;;;18.40;99.90;;;;;;5111304;28;20047;-77
2022/04/27 10:39:15;;;;;;;15.00;9.38;;;18.40;99.90;;;;;;5108857;28;20023;-77
2022/04/27 10:41:49;;;;;;;13.70;8.55;;;18.40;99.90;;;;;;5109438;28;20482;-77
2022/04/27 10:44:17;;;;;;;13.10;9.25;;;18.40;99.90;;;;;;5106018;28;20054;-78
2022/04/27 10:46:46;;;;;;;11.32;8.13;;;18.30;99.90;;;;;;5108944;28;20039;-78
2022/04/27 10:49:25;;;;;;;12.35;9.15;;;18.40;99.90;;;;;;5106036;28;20032;-79
2022/04/27 10:52:10;;;;;;;16.60;9.52;;;18.30;99.90;;;;;;5108317;28;20394;-77
2022/04/27 10:54:39;;;;;;;16.25;9.05;;;18.30;99.90;;;;;;5109066;28;20031;-78
2022/04/27 10:57:19;;;;;;;13.50;8.68;;;18.30;99.90;;;;;;5111868;28;20099;-78
2022/04/27 10:59:53;;;;;;;13.63;8.13;;;18.30;99.90;;;;;;5107139;28;20031;-76
2022/04/27 11:02:44;;;;;;;15.55;9.55;;;18.30;99.90;;;;;;5104550;28;20030;-77
2022/04/27 11:05:11;;;;;;;14.88;9.65;;;18.30;99.90;;;;;;5090507;28;20107;-77
2022/04/27 11:08:11;;;;;;;15.70;9.10;;;18.30;99.90;;;;;;5107185;28;20020;-78
2022/04/27 11:10:40;;;;;;;14.48;8.63;;;18.30;99.90;;;;;;5055037;28;20063;-77
2022/04/27 11:13:11;;;;;;;14.63;8.88;;;18.30;99.90;;;;;;5112602;27;20034;-78
2022/04/27 11:15:38;;;;;;;14.60;8.82;;;18.20;99.90;;;;;;5080819;28;20444;-76
2022/04/27 11:18:06;;;;;;;13.05;8.90;;;18.30;99.90;;;;;;5111476;27;20036;-77
2022/04/27 11:20:40;;;;;;;14.88;9.93;;;18.30;99.90;;;;;;5112393;28;20027;-76
2022/04/27 11:23:19;;;;;;;15.65;8.73;;;18.30;99.90;;;;;;5130724;27;20114;-78
2022/04/27 11:25:51;;;;;;;13.13;8.73;;;18.30;99.90;;;;;;5126885;27;20024;-78
2022/04/27 11:28:19;;;;;;;14.25;8.35;;;18.20;99.90;;;;;;5118292;27;20040;-77
2022/04/27 11:30:47;;;;;;;13.15;8.88;;;18.20;99.90;;;;;;5114462;28;20020;-76
2022/04/27 11:33:17;;;;;;;18.80;11.63;;;18.20;99.90;;;;;;5126017;27;20034;-79
2022/04/27 11:35:49;;;;;;;13.88;8.90;;;18.20;99.90;;;;;;5114860;28;20032;-76
2022/04/27 11:38:21;;;;;;;13.15;8.43;;;18.30;99.90;;;;;;5115921;27;20123;-77
2022/04/27 11:40:51;;;;;;;12.30;8.55;;;18.20;99.90;;;;;;5111915;28;20024;-77
2022/04/27 11:43:28;;;;;;;14.20;8.98;;;18.20;99.90;;;;;;5115061;27;20044;-77
2022/04/27 11:45:56;;;;;;;16.20;8.95;;;18.20;99.90;;;;;;5110117;27;20558;-76
2022/04/27 11:48:23;;;;;;;12.90;8.18;;;18.20;99.90;;;;;;5108686;28;20044;-76
2022/04/27 11:50:52;;;;;;;14.20;9.70;;;18.20;99.90;;;;;;5097042;27;20031;-76
2022/04/27 11:53:20;;;;;;;11.10;8.13;;;18.20;99.90;;;;;;5133674;27;20019;-76
2022/04/27 11:55:51;;;;;;;15.15;8.95;;;18.20;99.90;;;;;;5115006;27;20043;-76
2022/04/27 11:58:26;;;;;;;13.25;8.52;;;18.20;99.90;;;;;;5115049;27;20035;-77
2022/04/27 12:00:56;;;;;;;11.15;8.30;;;18.20;99.90;;;;;;5108809;28;20031;-78
2022/04/27 12:03:26;;;;;;;11.40;8.70;;;18.20;99.90;;;;;;5105357;28;20034;-75
2022/04/27 12:05:55;;;;;;;15.63;9.32;;;18.20;99.90;;;;;;5115690;28;20106;-76
2022/04/27 12:08:25;;;;;;;14.48;8.93;;;18.20;99.90;;;;;;5113576;28;20027;-78
2022/04/27 12:10:53;;;;;;;10.90;8.30;;;18.20;99.90;;;;;;5108473;28;20023;-78
2022/04/27 12:13:24;;;;;;;15.20;9.30;;;18.20;99.90;;;;;;5133297;27;20023;-76
2022/04/27 12:15:54;;;;;;;14.43;9.27;;;18.20;99.90;;;;;;5109717;27;20028;-77
2022/04/27 12:18:27;;;;;;;13.38;8.73;;;18.10;99.90;;;;;;5110758;28;20028;-76
2022/04/27 12:20:56;;;;;;;16.55;9.32;;;18.20;99.90;;;;;;5107906;27;20031;-77
2022/04/27 12:23:39;;;;;;;13.20;7.85;;;18.20;99.90;;;;;;5116734;27;20111;-78
2022/04/27 12:26:07;;;;;;;12.57;7.05;;;18.20;99.90;;;;;;5105478;27;20031;-77
2022/04/27 12:28:49;;;;;;;13.35;8.70;;;18.20;99.90;;;;;;5109965;28;20039;-76
2022/04/27 12:31:20;;;;;;;11.80;7.85;;;18.20;99.90;;;;;;5108784;27;20900;-77
2022/04/27 12:33:49;;;;;;;18.45;9.07;;;18.20;99.90;;;;;;5109473;28;20038;-77
2022/04/27 12:39:22;;;;;;;11.68;8.70;;;18.20;99.90;;;;;;5100606;28;20082;-76
2022/04/27 12:41:52;;;;;;;14.07;9.43;;;18.20;99.90;;;;;;5109841;28;20425;-77
2022/04/27 12:44:24;;;;;;;12.93;8.95;;;18.20;99.90;;;;;;5112732;28;20027;-75
2022/04/27 12:47:04;;;;;;;16.00;9.82;;;18.20;99.90;;;;;;5109014;27;20110;-76
2022/04/27 12:49:34;;;;;;;13.80;9.20;;;18.30;99.90;;;;;;5104586;27;20079;-77
2022/04/27 12:52:21;;;;;;;13.70;9.25;;;18.20;99.90;;;;;;5110942;27;20115;-77
2022/04/27 12:54:52;;;;;;;13.40;8.52;;;18.20;99.90;;;;;;5102185;27;20027;-77
2022/04/27 12:57:20;;;;;;;16.70;9.77;;;18.20;99.90;;;;;;5105004;27;20126;-78
2022/04/27 12:59:58;;;;;;;15.70;10.15;;;18.20;99.90;;;;;;5102254;27;20024;-76
2022/04/27 13:02:27;;;;;;;12.65;8.32;;;18.20;99.90;;;;;;5101525;27;20028;-77
2022/04/27 13:04:54;;;;;;;12.73;8.85;;;18.20;99.90;;;;;;5098384;28;20177;-76
2022/04/27 13:07:22;;;;;;;13.07;8.27;;;18.20;99.90;;;;;;5108454;27;20978;-77
2022/04/27 13:12:36;;;;;;;13.93;7.90;;;18.20;99.90;;;;;;5098749;28;20061;-76
2022/04/27 13:15:06;;;;;;;10.57;7.57;;;18.20;99.90;;;;;;5099544;28;20122;-76
2022/04/27 13:17:34;;;;;;;11.65;7.88;;;18.10;99.90;;;;;;5114943;27;20081;-76
2022/04/27 13:20:02;;;;;;;7.97;6.63;;;18.10;99.90;;;;;;5104185;28;20081;-77
2022/04/27 13:22:30;;;;;;;9.73;6.95;;;18.10;99.90;;;;;;5099330;27;20027;-76
2022/04/27 13:24:58;;;;;;;11.80;7.70;;;18.10;99.90;;;;;;5108748;28;20054;-76